Time;durP1;ratioP1;P1;durP2;ratioP2;P2;SDS_P1;SDS_P2;PMS_P1;PMS_P2;Temp;Humidity;BMP_temperature;BMP_pressure;BME280_temperature;BME280_humidity;BME280_pressure;Samples;Min_cycle;Max_cycle;Signal;HPM_P1;HPM_P2
2023/03/16 00:02:04;;;;;;;0.80;0.80;;;;;;;9.41;67.50;95826.41;5027441;28;20052;-58
2023/03/16 00:04:36;;;;;;;0.77;0.77;;;;;;;9.49;67.49;95850.13;5026185;28;20217;-56
2023/03/16 00:07:08;;;;;;;0.80;0.80;;;;;;;9.49;67.63;95836.28;5042176;28;20064;-57
2023/03/16 00:09:39;;;;;;;0.73;0.73;;;;;;;9.43;67.80;95835.09;5026682;28;20049;-57
2023/03/16 00:12:17;;;;;;;0.80;0.80;;;;;;;9.44;67.73;95820.09;5027238;28;20133;-58
2023/03/16 00:14:46;;;;;;;0.70;0.70;;;;;;;9.50;67.87;95839.88;5027367;28;20111;-58
2023/03/16 00:17:18;;;;;;;0.70;0.70;;;;;;;9.30;67.31;95803.50;5026980;28;20049;-59
2023/03/16 00:19:54;;;;;;;0.80;0.80;;;;;;;9.43;67.87;95829.59;5026904;28;20882;-57
2023/03/16 00:22:23;;;;;;;0.80;0.80;;;;;;;9.39;68.53;95831.53;5027156;28;20084;-56
2023/03/16 00:24:51;;;;;;;0.80;0.80;;;;;;;9.44;67.94;95847.72;5026958;28;20065;-56
2023/03/16 00:27:18;;;;;;;0.70;0.70;;;;;;;9.47;67.72;95841.41;5026885;28;20053;-56
2023/03/16 00:29:47;;;;;;;0.70;0.70;;;;;;;9.49;67.68;95838.25;5027135;28;20061;-58
2023/03/16 00:32:18;;;;;;;0.80;0.80;;;;;;;9.40;67.32;95844.19;5026590;28;20041;-56
2023/03/16 00:34:46;;;;;;;0.80;0.80;;;;;;;9.39;67.12;95839.81;5026854;28;20059;-57
2023/03/16 00:37:15;;;;;;;0.73;0.73;;;;;;;9.37;67.82;95844.97;5025602;28;20348;-58
2023/03/16 00:39:43;;;;;;;0.70;0.70;;;;;;;9.18;68.44;95851.63;5026483;28;20049;-57
2023/03/16 00:42:11;;;;;;;0.68;0.68;;;;;;;9.25;68.05;95856.38;5026016;28;20122;-58
2023/03/16 00:44:38;;;;;;;0.70;0.70;;;;;;;8.76;68.56;95787.16;5041586;28;20053;-57
2023/03/16 00:47:06;;;;;;;0.70;0.70;;;;;;;9.16;69.00;95840.19;5026357;28;20057;-57
2023/03/16 00:49:34;;;;;;;0.70;0.70;;;;;;;9.24;68.68;95854.81;5041145;28;20136;-58
2023/03/16 00:52:05;;;;;;;0.70;0.70;;;;;;;9.08;69.31;95868.16;5022499;28;20147;-58
2023/03/16 00:54:32;;;;;;;0.70;0.70;;;;;;;9.16;69.20;95858.72;5006846;28;20143;-57
2023/03/16 00:57:00;;;;;;;0.77;0.77;;;;;;;9.23;69.28;95861.53;5006577;28;20112;-57
2023/03/16 00:59:28;;;;;;;0.70;0.70;;;;;;;9.29;68.52;95854.44;5006270;28;20104;-58
2023/03/16 01:01:55;;;;;;;0.80;0.80;;;;;;;9.22;68.92;95851.63;5006247;28;20570;-58
2023/03/16 01:04:21;;;;;;;0.80;0.80;;;;;;;9.19;68.66;95853.22;5006144;28;20088;-58
2023/03/16 01:06:50;;;;;;;0.70;0.70;;;;;;;8.78;68.94;95804.13;4992795;28;20050;-57
2023/03/16 01:09:17;;;;;;;0.70;0.70;;;;;;;9.01;69.22;95851.56;4985842;28;20304;-57
2023/03/16 01:11:44;;;;;;;0.70;0.70;;;;;;;9.11;69.19;95856.34;4985831;28;20136;-59
2023/03/16 01:14:10;;;;;;;0.73;0.73;;;;;;;9.05;69.12;95850.41;4985692;28;20084;-59
2023/03/16 01:16:37;;;;;;;0.73;0.73;;;;;;;9.02;69.65;95861.44;4986031;28;20473;-56
2023/03/16 01:19:04;;;;;;;0.70;0.70;;;;;;;9.10;69.13;95860.28;4985746;28;20050;-56
2023/03/16 01:21:32;;;;;;;0.70;0.70;;;;;;;7.27;68.45;95556.03;4986211;28;20054;-57
2023/03/16 01:23:59;;;;;;;0.80;0.80;;;;;;;9.26;68.13;95869.03;4986679;28;20042;-57
2023/03/16 01:26:26;;;;;;;0.70;0.70;;;;;;;9.22;68.43;95868.22;4986192;28;20508;-58
2023/03/16 01:28:53;;;;;;;0.70;0.70;;;;;;;9.20;68.13;95865.03;4986327;28;20050;-57
2023/03/16 01:31:20;;;;;;;0.80;0.80;;;;;;;9.20;67.52;95865.03;4986190;28;20534;-57
2023/03/16 01:33:47;;;;;;;0.70;0.70;;;;;;;8.80;67.98;95815.59;4985861;28;20050;-57
2023/03/16 01:36:16;;;;;;;0.80;0.80;;;;;;;9.32;68.04;95870.22;4985986;28;20065;-57
2023/03/16 01:38:43;;;;;;;0.70;0.70;;;;;;;9.41;67.78;95869.81;4986168;28;20113;-57
2023/03/16 01:41:11;;;;;;;0.77;0.77;;;;;;;9.11;69.05;95856.34;4986158;28;20046;-58
2023/03/16 01:43:39;;;;;;;0.80;0.80;;;;;;;9.37;68.90;95872.59;4985208;28;20058;-57
2023/03/16 01:46:06;;;;;;;0.70;0.70;;;;;;;9.32;69.43;95872.97;4985883;28;21187;-58
2023/03/16 01:49:00;;;;;;;0.70;0.70;;;;;;;9.18;69.69;95878.47;4985421;28;20085;-58
2023/03/16 01:51:41;;;;;;;0.70;0.70;;;;;;;9.21;70.02;95877.69;4985906;28;20501;-57
2023/03/16 01:54:20;;;;;;;0.80;0.80;;;;;;;9.17;69.90;95882.38;5035719;28;20053;-58
2023/03/16 01:56:54;;;;;;;0.77;0.77;;;;;;;9.29;70.40;95879.28;5024986;28;20061;-58
2023/03/16 01:59:26;;;;;;;0.70;0.70;;;;;;;9.34;70.37;95886.41;5024835;28;20057;-58
2023/03/16 02:01:54;;;;;;;0.70;0.70;;;;;;;9.22;71.90;95884.78;5025076;28;20136;-58
2023/03/16 02:04:45;;;;;;;0.80;0.80;;;;;;;9.16;72.26;95891.88;5024938;28;20049;-58
2023/03/16 02:07:15;;;;;;;0.70;0.70;;;;;;;9.11;73.40;95889.47;5024838;28;20438;-59
2023/03/16 02:09:45;;;;;;;0.70;0.70;;;;;;;8.50;73.33;95793.00;5024353;28;20099;-59
2023/03/16 02:12:17;;;;;;;0.80;0.80;;;;;;;8.78;73.78;95831.75;5024779;28;20060;-57
2023/03/16 02:14:45;;;;;;;0.70;0.70;;;;;;;9.02;74.15;95892.63;5039707;28;20138;-56
2023/03/16 02:17:19;;;;;;;0.70;0.70;;;;;;;9.12;73.65;95896.56;5024850;28;20116;-56
2023/03/16 02:19:58;;;;;;;0.70;0.70;;;;;;;9.16;74.58;95897.41;5039813;28;20065;-56
2023/03/16 02:22:25;;;;;;;0.80;0.80;;;;;;;9.16;75.02;95895.44;5024826;28;20057;-57
2023/03/16 02:24:52;;;;;;;0.80;0.80;;;;;;;9.23;75.28;95891.91;5024753;28;20406;-56
2023/03/16 02:27:40;;;;;;;0.70;0.70;;;;;;;9.30;74.60;95894.69;5024582;28;20053;-56
2023/03/16 02:30:12;;;;;;;0.75;0.75;;;;;;;8.97;74.24;95835.00;5024722;28;20166;-57
2023/03/16 02:32:41;;;;;;;0.80;0.80;;;;;;;9.31;74.53;95898.25;5024171;28;20091;-59
2023/03/16 02:35:11;;;;;;;0.75;0.75;;;;;;;9.30;75.38;95902.97;5024315;28;20498;-57
2023/03/16 02:37:40;;;;;;;0.70;0.70;;;;;;;9.31;75.19;95904.53;5022862;28;20054;-57
2023/03/16 02:40:23;;;;;;;0.70;0.70;;;;;;;9.31;75.60;95901.78;5024252;28;20251;-58
2023/03/16 02:42:54;;;;;;;0.80;0.80;;;;;;;9.34;75.78;95903.78;5023919;28;20119;-59
2023/03/16 02:45:26;;;;;;;0.70;0.70;;;;;;;9.35;76.70;95910.09;5024283;28;20123;-58
2023/03/16 02:47:54;;;;;;;0.70;0.70;;;;;;;9.45;76.79;95910.13;5024189;28;20444;-57
2023/03/16 02:50:20;;;;;;;0.80;0.80;;;;;;;9.39;76.98;95910.91;5024299;28;20057;-56
2023/03/16 02:52:47;;;;;;;0.80;0.80;;;;;;;9.47;76.60;95913.28;5017639;28;20052;-59
2023/03/16 02:55:14;;;;;;;0.90;0.90;;;;;;;9.00;75.79;95847.22;5003905;28;20049;-56
2023/03/16 02:57:41;;;;;;;0.80;0.80;;;;;;;9.39;74.85;95922.72;5004435;28;20058;-58
2023/03/16 03:00:15;;;;;;;0.70;0.70;;;;;;;9.33;74.89;95891.13;5003406;28;20654;-58
2023/03/16 03:02:43;;;;;;;0.80;0.80;;;;;;;9.56;74.10;95933.06;5004560;28;20663;-56
2023/03/16 03:05:10;;;;;;;0.80;0.80;;;;;;;9.56;74.00;95938.59;5003927;28;20053;-57
2023/03/16 03:07:37;;;;;;;0.90;0.90;;;;;;;9.61;73.60;95940.97;5004106;28;20054;-58
2023/03/16 03:10:05;;;;;;;0.80;0.80;;;;;;;9.65;73.30;95941.78;5002516;28;20085;-59
2023/03/16 03:12:32;;;;;;;0.75;0.75;;;;;;;9.71;73.08;95934.69;5004387;28;20062;-56
2023/03/16 03:14:59;;;;;;;0.80;0.80;;;;;;;9.55;72.31;95919.66;5004178;28;20053;-57
2023/03/16 03:17:28;;;;;;;0.80;0.80;;;;;;;9.31;72.37;95890.72;5004383;28;20054;-59
2023/03/16 03:20:01;;;;;;;0.80;0.80;;;;;;;9.74;71.95;95922.81;5003579;28;20054;-57
2023/03/16 03:22:27;;;;;;;0.80;0.80;;;;;;;9.77;71.60;95922.03;5004023;28;20046;-57
2023/03/16 03:24:54;;;;;;;0.80;0.80;;;;;;;9.37;71.57;95858.78;5018457;28;20060;-58
2023/03/16 03:27:21;;;;;;;0.80;0.80;;;;;;;9.70;71.47;95905.47;5004267;28;20087;-56
2023/03/16 03:29:48;;;;;;;0.75;0.75;;;;;;;9.28;70.83;95858.34;5003936;28;20131;-57
2023/03/16 03:32:14;;;;;;;0.80;0.80;;;;;;;9.79;70.85;95930.75;5004093;28;20084;-57
2023/03/16 03:34:41;;;;;;;0.77;0.77;;;;;;;9.82;70.21;95927.19;5003762;28;20472;-58
2023/03/16 03:37:08;;;;;;;0.80;0.80;;;;;;;9.90;70.07;95933.53;5004254;28;20065;-57
2023/03/16 03:39:34;;;;;;;0.80;0.80;;;;;;;9.89;69.95;95952.09;5004016;28;20126;-57
2023/03/16 03:42:01;;;;;;;0.90;0.90;;;;;;;9.78;70.25;95934.72;5003812;28;20069;-57
2023/03/16 03:44:28;;;;;;;0.80;0.80;;;;;;;9.87;69.76;95926.81;5003293;28;20058;-58
2023/03/16 03:46:55;;;;;;;0.80;0.80;;;;;;;9.48;71.09;95898.31;5004099;28;20500;-57
2023/03/16 03:49:21;;;;;;;0.80;0.80;;;;;;;9.75;70.87;95940.22;5002986;28;20053;-57
2023/03/16 03:51:48;;;;;;;0.80;0.80;;;;;;;9.71;71.30;95940.19;5004176;28;20478;-57
2023/03/16 03:54:15;;;;;;;0.80;0.80;;;;;;;9.66;71.93;95940.59;5021691;28;20052;-58
2023/03/16 03:56:42;;;;;;;0.80;0.80;;;;;;;9.34;72.05;95923.13;5023883;28;20132;-58
2023/03/16 03:59:08;;;;;;;0.70;0.70;;;;;;;9.52;72.02;95948.03;5023246;28;20045;-58
2023/03/16 04:01:35;;;;;;;0.70;0.70;;;;;;;9.39;71.97;95939.31;5021991;28;20077;-58
2023/03/16 04:04:01;;;;;;;0.70;0.70;;;;;;;9.49;71.86;95960.69;5023397;28;20049;-57
2023/03/16 04:06:28;;;;;;;0.70;0.70;;;;;;;9.39;72.25;95955.88;5023340;28;20081;-58
2023/03/16 04:08:55;;;;;;;0.80;0.80;;;;;;;9.39;72.16;95966.94;5023323;28;20170;-57
2023/03/16 04:11:22;;;;;;;0.80;0.80;;;;;;;9.26;72.83;95968.50;5022243;28;20668;-58
2023/03/16 04:13:52;;;;;;;0.70;0.70;;;;;;;9.22;72.54;95967.66;5027200;28;20049;-58
2023/03/16 04:16:19;;;;;;;0.70;0.70;;;;;;;9.27;72.59;95974.78;5027013;28;20067;-59
2023/03/16 04:18:46;;;;;;;0.70;0.70;;;;;;;9.20;72.78;95970.00;5026399;28;20132;-58
2023/03/16 04:21:15;;;;;;;0.70;0.70;;;;;;;9.15;71.99;95956.59;5026535;28;20059;-57
2023/03/16 04:23:42;;;;;;;0.80;0.80;;;;;;;9.31;70.89;95954.28;5026568;28;20046;-57
2023/03/16 04:26:10;;;;;;;0.70;0.70;;;;;;;9.47;70.98;95979.63;5026431;28;20042;-58
2023/03/16 04:28:36;;;;;;;0.80;0.80;;;;;;;9.20;70.82;95947.91;5024929;28;20657;-57
2023/03/16 04:31:05;;;;;;;0.80;0.80;;;;;;;9.50;70.76;95984.38;5026404;28;20049;-58
2023/03/16 04:33:37;;;;;;;0.70;0.70;;;;;;;9.09;71.06;95920.25;5026301;28;20049;-58
2023/03/16 04:36:05;;;;;;;0.80;0.80;;;;;;;9.38;73.40;95978.38;5026709;28;20060;-57
2023/03/16 04:38:33;;;;;;;0.70;0.70;;;;;;;9.32;73.49;95966.94;5024738;28;20091;-58
2023/03/16 04:41:01;;;;;;;0.70;0.70;;;;;;;9.42;73.30;95988.28;5025907;28;20089;-58
2023/03/16 04:43:29;;;;;;;0.70;0.70;;;;;;;9.39;74.29;95989.06;5024320;28;20524;-58
2023/03/16 04:45:55;;;;;;;0.80;0.80;;;;;;;9.34;74.96;95997.75;5025690;28;20060;-58
2023/03/16 04:48:22;;;;;;;0.80;0.80;;;;;;;9.10;75.98;95976.31;5024823;28;20084;-57
2023/03/16 04:50:50;;;;;;;0.80;0.80;;;;;;;9.31;76.05;95998.50;5025679;28;20111;-57
2023/03/16 04:53:16;;;;;;;0.80;0.80;;;;;;;9.14;76.28;96011.03;5016316;28;20398;-58
2023/03/16 04:55:45;;;;;;;0.70;0.70;;;;;;;6.14;75.67;95548.13;5006151;28;20078;-59
2023/03/16 04:58:12;;;;;;;0.80;0.80;;;;;;;8.85;75.37;95950.53;5005954;28;20453;-58
2023/03/16 05:00:40;;;;;;;0.70;0.70;;;;;;;9.12;75.50;96007.06;5000948;28;20050;-58
2023/03/16 05:03:09;;;;;;;0.73;0.73;;;;;;;9.14;74.50;96004.72;4986975;28;20050;-60
2023/03/16 05:05:37;;;;;;;0.70;0.70;;;;;;;8.60;74.01;95935.78;4986530;28;20542;-57
2023/03/16 05:08:05;;;;;;;0.70;0.70;;;;;;;9.16;74.19;96013.41;4986849;28;20145;-57
2023/03/16 05:10:33;;;;;;;0.70;0.70;;;;;;;8.85;74.08;95969.84;4986116;28;20149;-58
2023/03/16 05:13:00;;;;;;;0.80;0.80;;;;;;;9.23;73.90;96016.25;4986568;28;20054;-58
2023/03/16 05:15:26;;;;;;;0.70;0.70;;;;;;;9.29;73.20;96022.97;4986021;28;20583;-58
2023/03/16 05:17:57;;;;;;;0.80;0.80;;;;;;;9.38;72.63;96026.16;5001256;28;20724;-57
2023/03/16 05:20:24;;;;;;;0.80;0.80;;;;;;;9.42;71.94;96020.66;4986072;28;20046;-58
2023/03/16 05:22:51;;;;;;;0.73;0.73;;;;;;;9.36;71.24;96028.53;4985634;28;20093;-59
2023/03/16 05:25:19;;;;;;;0.70;0.70;;;;;;;9.44;70.30;96032.91;4985989;28;20054;-58
2023/03/16 05:27:49;;;;;;;0.75;0.75;;;;;;;9.48;70.21;96030.97;4986005;28;20054;-58
2023/03/16 05:30:17;;;;;;;0.80;0.80;;;;;;;9.42;70.45;96038.03;5000888;28;20497;-58
2023/03/16 05:32:44;;;;;;;0.70;0.70;;;;;;;9.17;70.24;95992.91;4984519;28;20046;-58
2023/03/16 05:35:12;;;;;;;0.80;0.80;;;;;;;9.10;70.68;95970.78;4985768;28;20050;-58
2023/03/16 05:37:40;;;;;;;0.80;0.80;;;;;;;9.11;70.43;95983.41;5000709;28;20054;-57
2023/03/16 05:40:15;;;;;;;0.80;0.80;;;;;;;9.60;70.54;96038.91;4984632;28;20050;-57
2023/03/16 05:42:46;;;;;;;0.80;0.80;;;;;;;9.50;69.99;96017.53;4985620;28;20058;-57
2023/03/16 05:45:14;;;;;;;0.80;0.80;;;;;;;9.68;69.82;96046.06;4985946;28;20082;-57
2023/03/16 05:47:42;;;;;;;0.80;0.80;;;;;;;9.51;70.14;96046.78;4985493;28;20578;-57
2023/03/16 05:50:11;;;;;;;0.80;0.80;;;;;;;9.57;69.75;96045.22;4985300;28;20105;-56
2023/03/16 05:52:39;;;;;;;0.73;0.73;;;;;;;9.18;70.53;96002.78;4986644;28;20055;-57
2023/03/16 05:55:07;;;;;;;0.80;0.80;;;;;;;9.50;71.23;96060.97;5024697;28;20121;-58
2023/03/16 05:57:34;;;;;;;0.75;0.75;;;;;;;9.61;71.17;96062.59;5025029;28;20130;-58
2023/03/16 06:00:11;;;;;;;0.80;0.80;;;;;;;9.56;71.02;96065.75;5024560;28;20049;-57
2023/03/16 06:02:38;;;;;;;0.80;0.80;;;;;;;9.55;70.37;96064.16;5023612;28;20049;-58
2023/03/16 06:05:06;;;;;;;0.80;0.80;;;;;;;9.69;70.60;96066.22;5024731;28;20132;-57
2023/03/16 06:07:33;;;;;;;0.80;0.80;;;;;;;9.80;69.16;96065.06;4995642;28;20081;-57
2023/03/16 06:10:00;;;;;;;0.77;0.77;;;;;;;8.87;68.90;95913.03;4966390;28;20051;-58
2023/03/16 06:12:27;;;;;;;0.80;0.80;;;;;;;9.98;68.37;96079.75;4981085;28;20055;-56
2023/03/16 06:14:53;;;;;;;0.70;0.70;;;;;;;9.44;67.67;95994.22;4942782;28;20086;-58
2023/03/16 06:17:20;;;;;;;0.70;0.70;;;;;;;10.03;68.12;96078.59;4927477;29;20494;-56
2023/03/16 06:19:47;;;;;;;0.80;0.80;;;;;;;9.76;68.04;96036.63;4927574;29;20090;-58
2023/03/16 06:22:13;;;;;;;0.80;0.80;;;;;;;10.09;67.34;96083.38;4927678;29;20047;-57
2023/03/16 06:24:40;;;;;;;0.80;0.80;;;;;;;10.17;67.04;96090.53;4927627;29;20055;-57
2023/03/16 06:27:07;;;;;;;0.90;0.90;;;;;;;10.36;66.11;96097.69;4927597;29;20498;-58
2023/03/16 06:29:34;;;;;;;0.80;0.80;;;;;;;10.31;66.11;96101.63;4926926;29;20139;-57
2023/03/16 06:32:00;;;;;;;0.90;0.90;;;;;;;10.11;65.91;96072.72;4927821;28;20111;-58
2023/03/16 06:34:27;;;;;;;0.80;0.80;;;;;;;10.23;65.96;96069.59;4938575;28;20055;-58
2023/03/16 06:36:54;;;;;;;0.80;0.80;;;;;;;10.29;66.05;96119.81;4945287;28;20051;-56
2023/03/16 06:39:20;;;;;;;0.80;0.80;;;;;;;10.04;65.86;96039.47;4944420;28;20118;-56
2023/03/16 06:41:47;;;;;;;0.90;0.90;;;;;;;10.43;65.54;96112.34;4945052;28;20206;-59
2023/03/16 06:44:13;;;;;;;0.80;0.80;;;;;;;9.72;65.14;95990.78;4973626;28;20155;-58
2023/03/16 06:46:40;;;;;;;0.90;0.90;;;;;;;10.12;64.91;96027.25;4940744;29;20495;-59
2023/03/16 06:49:07;;;;;;;0.90;0.90;;;;;;;10.06;64.25;96028.81;4940769;28;20066;-60
2023/03/16 06:51:33;;;;;;;0.80;0.80;;;;;;;10.89;63.93;96131.78;4947451;28;20055;-57
2023/03/16 06:54:00;;;;;;;0.80;0.80;;;;;;;10.99;63.29;96121.91;4942971;28;20098;-58
2023/03/16 06:56:27;;;;;;;0.90;0.90;;;;;;;11.05;62.96;96123.13;4959038;28;20055;-58
2023/03/16 06:58:53;;;;;;;0.90;0.90;;;;;;;10.34;62.70;96044.69;4943707;28;20526;-57
2023/03/16 07:01:21;;;;;;;0.80;0.80;;;;;;;10.88;62.93;96113.59;4926613;28;20051;-57
2023/03/16 07:03:48;;;;;;;0.90;0.90;;;;;;;10.75;62.06;96059.00;4981173;28;20137;-55
2023/03/16 07:06:16;;;;;;;0.88;0.88;;;;;;;11.05;60.90;96118.34;4986811;28;20061;-55
2023/03/16 07:08:42;;;;;;;0.88;0.88;;;;;;;11.06;61.34;96139.34;4983915;28;20172;-55
2023/03/16 07:11:09;;;;;;;0.90;0.90;;;;;;;11.27;60.54;96130.25;4984923;28;20054;-57
2023/03/16 07:13:36;;;;;;;0.80;0.80;;;;;;;10.88;59.82;96051.84;4980692;28;20046;-57
2023/03/16 07:16:03;;;;;;;0.80;0.80;;;;;;;11.38;59.61;96142.13;4980307;28;21503;-55
2023/03/16 07:18:30;;;;;;;1.00;1.00;;;;;;;11.48;58.91;96131.00;4968950;28;20464;-58
2023/03/16 07:20:57;;;;;;;0.90;0.90;;;;;;;11.38;57.37;96070.03;4973942;28;20069;-55
2023/03/16 07:23:24;;;;;;;0.93;0.93;;;;;;;9.91;57.53;95844.63;4977757;28;20143;-59
2023/03/16 07:25:51;;;;;;;0.95;0.95;;;;;;;12.18;56.58;96157.81;4980511;28;20567;-59
2023/03/16 07:28:18;;;;;;;0.90;0.90;;;;;;;11.31;56.26;96036.75;4971557;28;20359;-60
2023/03/16 07:30:45;;;;;;;0.93;0.93;;;;;;;12.32;56.79;96163.31;4973335;28;20140;-58
2023/03/16 07:33:29;;;;;;;;;;;;;;;12.45;55.35;96170.00;4967878;28;20050;-56
2023/03/16 07:35:55;;;;;;;1.00;1.00;;;;;;;11.76;55.41;96080.25;4973924;28;20032;-59
2023/03/16 07:38:22;;;;;;;1.00;1.00;;;;;;;12.49;54.37;96195.78;4975915;28;20069;-58
2023/03/16 07:40:51;;;;;;;1.00;1.00;;;;;;;12.63;54.40;96167.94;4966998;28;20050;-56
2023/03/16 07:43:17;;;;;;;1.00;1.00;;;;;;;12.38;54.14;96139.47;4966101;28;20065;-56
2023/03/16 07:45:49;;;;;;;1.10;1.10;;;;;;;12.75;54.87;96175.00;4966349;28;20083;-58
2023/03/16 07:48:16;;;;;;;1.05;1.05;;;;;;;12.73;55.12;96244.91;4972768;28;20062;-62
2023/03/16 07:50:45;;;;;;;1.15;1.15;;;;;;;12.59;54.08;96146.91;4960988;28;20060;-59
2023/03/16 07:53:13;;;;;;;1.02;1.02;;;;;;;11.62;54.04;96035.88;4967997;28;20060;-55
2023/03/16 07:55:41;;;;;;;1.00;1.00;;;;;;;12.23;54.31;96160.19;4967704;28;20172;-57
2023/03/16 07:58:09;;;;;;;1.00;1.00;;;;;;;12.46;54.96;96191.03;4972101;28;20424;-57
2023/03/16 08:00:36;;;;;;;1.00;1.00;;;;;;;12.04;54.84;96185.63;4970472;28;20082;-57
2023/03/16 08:03:03;;;;;;;1.00;1.00;;;;;;;11.41;55.20;96108.03;4980690;28;20054;-57
2023/03/16 08:05:33;;;;;;;0.93;0.93;;;;;;;11.65;56.08;96193.22;4975316;28;20145;-59
2023/03/16 08:08:00;;;;;;;0.90;0.90;;;;;;;11.07;56.32;96153.97;4978357;28;20066;-55
2023/03/16 08:10:28;;;;;;;0.95;0.95;;;;;;;11.41;56.90;96197.53;4993496;28;20545;-57
2023/03/16 08:12:55;;;;;;;0.90;0.90;;;;;;;11.08;56.67;96161.91;4996167;28;20517;-57
2023/03/16 08:15:23;;;;;;;0.90;0.90;;;;;;;11.31;57.53;96225.28;4973283;28;20160;-56
2023/03/16 08:17:51;;;;;;;0.80;0.80;;;;;;;11.31;56.83;96209.44;4972761;28;20050;-55
2023/03/16 08:20:18;;;;;;;0.98;0.98;;;;;;;11.10;57.21;96219.69;4960736;28;20064;-58
2023/03/16 08:22:45;;;;;;;0.80;0.80;;;;;;;10.73;57.52;96162.63;4980267;28;20112;-58
2023/03/16 08:25:14;;;;;;;0.90;0.90;;;;;;;11.04;57.43;96218.50;4989965;28;20050;-57
2023/03/16 08:27:41;;;;;;;0.80;0.80;;;;;;;11.16;58.07;96235.56;4974144;28;20058;-56
2023/03/16 08:30:11;;;;;;;1.00;1.00;;;;;;;11.07;57.23;96221.28;4966726;28;20164;-56
2023/03/16 08:32:39;;;;;;;0.88;0.88;;;;;;;11.12;56.92;96231.19;4969311;28;20068;-55
2023/03/16 08:35:12;;;;;;;0.90;0.90;;;;;;;11.15;57.18;96222.09;4970667;28;20066;-56
2023/03/16 08:37:40;;;;;;;0.90;0.90;;;;;;;10.82;56.91;96164.25;4966801;28;20054;-58
2023/03/16 08:40:12;;;;;;;0.80;0.80;;;;;;;10.84;57.04;96189.56;4972924;28;20545;-56
2023/03/16 08:42:39;;;;;;;0.90;0.90;;;;;;;11.48;55.99;96232.81;4974685;28;20135;-60
2023/03/16 08:45:08;;;;;;;0.90;0.90;;;;;;;11.58;55.80;96224.50;4970540;28;20938;-56
2023/03/16 08:47:39;;;;;;;;;;;;;;;11.82;54.77;96234.03;4977398;28;20072;-56
2023/03/16 08:50:07;;;;;;;1.00;1.00;;;;;;;9.93;55.33;95958.44;4984400;28;20434;-56
2023/03/16 08:52:37;;;;;;;0.90;0.90;;;;;;;12.06;54.31;96241.53;4972358;28;21322;-56
2023/03/16 08:55:05;;;;;;;0.90;0.90;;;;;;;12.08;54.52;96237.16;4970953;28;20062;-56
2023/03/16 08:57:32;;;;;;;1.00;1.00;;;;;;;12.44;53.58;96246.19;4964491;28;20058;-57
2023/03/16 09:00:00;;;;;;;1.10;1.10;;;;;;;12.59;53.03;96244.16;4968008;28;20053;-55
2023/03/16 09:02:26;;;;;;;1.08;1.08;;;;;;;12.86;52.30;96240.47;4970610;28;20053;-58
2023/03/16 09:04:53;;;;;;;1.10;1.10;;;;;;;12.57;52.69;96189.00;4973422;28;20054;-54
2023/03/16 09:07:20;;;;;;;0.90;0.90;;;;;;;11.14;55.06;96159.53;4971792;28;20050;-55
2023/03/16 09:09:47;;;;;;;0.90;0.90;;;;;;;8.45;56.57;95889.94;4981966;28;20481;-54
2023/03/16 09:12:14;;;;;;;0.90;0.90;;;;;;;10.51;58.02;96221.91;4964133;28;20496;-57
2023/03/16 09:14:40;;;;;;;0.90;0.90;;;;;;;10.86;58.22;96254.47;4967275;28;20494;-57
2023/03/16 09:17:07;;;;;;;0.90;0.90;;;;;;;10.68;57.49;96210.09;4966028;28;20062;-56
2023/03/16 09:19:34;;;;;;;0.90;0.90;;;;;;;10.99;57.04;96249.38;4962086;28;20128;-55
2023/03/16 09:22:17;;;;;;;0.90;0.90;;;;;;;10.62;59.24;96261.53;4976617;28;20189;-53
2023/03/16 09:24:44;;;;;;;0.80;0.80;;;;;;;10.38;59.55;96267.75;4978153;28;20057;-54
2023/03/16 09:27:10;;;;;;;0.90;0.90;;;;;;;10.72;59.06;96259.19;4967522;28;20757;-55
2023/03/16 09:29:37;;;;;;;0.90;0.90;;;;;;;11.24;57.52;96258.56;4965435;28;20066;-55
2023/03/16 09:32:04;;;;;;;0.82;0.82;;;;;;;8.21;57.22;95863.72;4964425;28;20054;-54
2023/03/16 09:34:31;;;;;;;0.90;0.90;;;;;;;10.58;58.08;96205.34;4965315;28;20065;-53
2023/03/16 09:36:59;;;;;;;0.90;0.90;;;;;;;11.81;55.65;96271.28;4961615;28;20116;-55
2023/03/16 09:39:26;;;;;;;1.00;1.00;;;;;;;12.57;54.44;96264.00;4966455;28;20145;-55
2023/03/16 09:42:01;;;;;;;1.10;1.10;;;;;;;12.53;52.17;96262.44;4966022;28;20055;-53
2023/03/16 09:44:31;;;;;;;1.00;1.00;;;;;;;12.38;52.76;96272.00;4959197;28;20503;-55
2023/03/16 09:47:00;;;;;;;1.00;1.00;;;;;;;12.20;52.14;96188.75;4961988;28;20053;-53
2023/03/16 09:49:35;;;;;;;1.00;1.00;;;;;;;11.84;51.97;96099.25;4967104;28;20517;-56
2023/03/16 09:52:20;;;;;;;1.00;1.00;;;;;;;13.19;50.63;96273.28;4965379;28;20472;-53
2023/03/16 09:54:58;;;;;;;1.20;1.20;;;;;;;13.54;49.56;96278.63;4960958;28;20485;-54
2023/03/16 09:57:27;;;;;;;1.23;1.23;;;;;;;13.74;48.95;96276.09;4965298;28;20418;-57
2023/03/16 10:00:09;;;;;;;1.20;1.20;;;;;;;14.22;47.98;96273.31;4966546;28;20158;-53
2023/03/16 10:02:54;;;;;;;1.20;1.20;;;;;;;14.28;47.80;96272.47;4963688;28;20170;-56
2023/03/16 10:05:23;;;;;;;1.30;1.30;;;;;;;14.72;46.95;96274.38;4963470;28;20065;-54
2023/03/16 10:08:14;;;;;;;1.30;1.30;;;;;;;14.46;47.77;96278.63;4957838;28;20349;-56
2023/03/16 10:11:12;;;;;;;1.10;1.10;;;;;;;13.83;48.48;96270.06;4965045;28;20064;-54
2023/03/16 10:14:02;;;;;;;1.15;1.15;;;;;;;13.73;47.94;96284.84;4961554;28;21015;-54
2023/03/16 10:16:37;;;;;;;1.27;1.27;;;;;;;13.81;48.15;96266.91;4975927;28;20197;-55
2023/03/16 10:19:12;;;;;;;1.10;1.10;;;;;;;13.03;50.06;96280.50;4962248;28;20165;-53
2023/03/16 10:21:40;;;;;;;1.13;1.13;;;;;;;12.90;48.92;96280.16;4965257;28;20529;-54
2023/03/16 10:24:25;;;;;;;1.10;1.10;;;;;;;13.45;48.58;96275.50;4963681;28;20141;-55
2023/03/16 10:26:59;;;;;;;1.10;1.10;;;;;;;14.13;47.62;96275.78;4963669;28;20526;-54
2023/03/16 10:29:31;;;;;;;;;;;;;;;14.01;46.56;96274.28;4966278;28;20658;-54
2023/03/16 10:32:11;;;;;;;1.20;1.20;;;;;;;13.74;47.88;96292.78;4963775;28;20016;-55
2023/03/16 10:34:38;;;;;;;1.20;1.20;;;;;;;14.21;46.09;96271.72;4967377;28;20600;-57
2023/03/16 10:37:04;;;;;;;1.10;1.10;;;;;;;14.23;45.97;96252.59;4965098;28;20585;-55
2023/03/16 10:39:35;;;;;;;1.20;1.20;;;;;;;14.57;45.77;96203.31;4961174;28;20103;-56
2023/03/16 10:42:02;;;;;;;1.30;1.30;;;;;;;15.59;44.12;96264.09;4964578;28;20147;-56
2023/03/16 10:44:29;;;;;;;1.40;1.40;;;;;;;16.03;43.58;96260.97;4979608;28;20731;-56
2023/03/16 10:47:05;;;;;;;1.42;1.42;;;;;;;16.15;42.52;96265.97;4960649;28;20061;-54
2023/03/16 10:49:41;;;;;;;1.40;1.40;;;;;;;15.32;44.27;96268.84;4959897;28;20857;-60
2023/03/16 10:52:28;;;;;;;1.50;1.50;;;;;;;15.01;44.87;96272.84;4963727;28;20141;-56
2023/03/16 10:55:01;;;;;;;1.40;1.40;;;;;;;14.58;45.80;96250.25;4969046;28;20694;-57
2023/03/16 10:57:33;;;;;;;1.30;1.30;;;;;;;14.69;46.22;96280.78;4988280;28;20062;-58
2023/03/16 11:00:27;;;;;;;1.30;1.30;;;;;;;13.25;45.90;95987.19;4984830;28;20066;-57
2023/03/16 11:02:57;;;;;;;1.30;1.30;;;;;;;15.48;44.58;96277.41;4981262;28;20068;-61
2023/03/16 11:05:29;;;;;;;1.45;1.45;;;;;;;14.13;46.21;96276.56;4970625;28;20054;-57
2023/03/16 11:08:09;;;;;;;1.30;1.30;;;;;;;14.90;45.54;96263.81;4962723;28;20064;-58
2023/03/16 11:10:38;;;;;;;1.30;1.30;;;;;;;11.69;44.74;95758.50;4972854;28;20061;-56
2023/03/16 11:13:18;;;;;;;1.35;1.35;;;;;;;15.04;44.79;96264.44;4970944;28;20058;-58
2023/03/16 11:15:54;;;;;;;1.33;1.33;;;;;;;15.30;43.77;96218.22;4968061;28;20060;-59
2023/03/16 11:18:43;;;;;;;1.27;1.27;;;;;;;14.40;44.69;96271.16;4971291;28;20184;-57
2023/03/16 11:21:16;;;;;;;1.30;1.30;;;;;;;15.06;44.56;96267.56;4961368;28;20988;-57
2023/03/16 11:23:50;;;;;;;1.38;1.38;;;;;;;14.50;45.43;96273.03;4974126;28;20567;-56
2023/03/16 11:26:24;;;;;;;1.30;1.30;;;;;;;13.97;46.08;96267.97;4972388;28;20136;-56
2023/03/16 11:29:02;;;;;;;1.20;1.20;;;;;;;12.84;48.14;96279.00;4971427;28;20571;-55
2023/03/16 11:31:49;;;;;;;1.15;1.15;;;;;;;12.60;49.44;96265.97;4988018;28;20599;-55
2023/03/16 11:34:18;;;;;;;1.10;1.10;;;;;;;12.82;48.70;96275.81;4971642;28;20505;-56
2023/03/16 11:36:58;;;;;;;1.20;1.20;;;;;;;13.00;48.74;96287.69;4971931;28;20580;-57
2023/03/16 11:39:39;;;;;;;1.20;1.20;;;;;;;13.11;48.16;96277.31;4968697;28;20058;-56
2023/03/16 11:42:29;;;;;;;1.13;1.13;;;;;;;13.45;47.77;96280.28;4974104;28;20622;-56
2023/03/16 11:45:24;;;;;;;1.00;1.00;;;;;;;13.35;46.86;96281.94;4973897;28;20053;-57
2023/03/16 11:48:18;;;;;;;1.00;1.00;;;;;;;13.19;48.01;96294.75;4968515;28;20065;-55
2023/03/16 11:51:03;;;;;;;1.02;1.02;;;;;;;13.03;48.09;96292.44;4971973;28;20070;-55
2023/03/16 11:53:47;;;;;;;1.10;1.10;;;;;;;12.14;48.46;96209.78;4967799;28;20244;-56